createdAt,value
2023-04-19T00:02:29.170Z,9.00
2023-04-19T00:04:57.789Z,7.67
2023-04-19T00:07:27.686Z,7.73
2023-04-19T00:09:55.838Z,8.60
2023-04-19T00:12:24.804Z,8.50
2023-04-19T00:14:53.433Z,7.63
2023-04-19T00:17:21.736Z,8.23
2023-04-19T00:19:51.047Z,7.50
2023-04-19T00:22:19.786Z,8.13
2023-04-19T00:24:49.744Z,8.87
2023-04-19T00:27:17.850Z,8.13
2023-04-19T00:29:46.317Z,8.47
2023-04-19T00:32:14.391Z,8.23
2023-04-19T00:34:42.848Z,8.50
2023-04-19T00:37:11.939Z,8.23
2023-04-19T00:39:40.191Z,8.33
2023-04-19T00:42:10.412Z,7.67
2023-04-19T00:44:38.992Z,8.07
2023-04-19T00:47:07.616Z,7.77
2023-04-19T00:49:35.892Z,8.77
2023-04-19T00:52:04.064Z,8.67
2023-04-19T00:54:32.950Z,8.23
2023-04-19T00:57:01.352Z,9.20
2023-04-19T00:59:32.093Z,10.43
2023-04-19T01:02:00.453Z,9.40
2023-04-19T01:04:29.042Z,9.93
2023-04-19T01:06:58.377Z,9.43
2023-04-19T01:09:26.717Z,9.77
2023-04-19T01:11:55.352Z,10.03
2023-04-19T01:14:23.803Z,9.70
2023-04-19T01:16:54.527Z,9.67
2023-04-19T01:19:23.276Z,9.37
2023-04-19T01:21:52.990Z,9.83
2023-04-19T01:24:22.776Z,9.77
2023-04-19T01:26:51.086Z,8.90
2023-04-19T01:29:22.082Z,9.70
2023-04-19T01:31:53.700Z,10.67
2023-04-19T01:34:23.372Z,10.63
2023-04-19T01:36:51.596Z,10.70
2023-04-19T01:39:19.907Z,10.33
2023-04-19T01:41:49.812Z,10.90
2023-04-19T01:44:18.109Z,11.27
2023-04-19T01:46:46.518Z,10.77
2023-04-19T01:49:14.978Z,10.60
2023-04-19T01:51:43.210Z,12.27
2023-04-19T01:54:11.563Z,10.67
2023-04-19T01:56:39.757Z,11.27
2023-04-19T01:59:09.461Z,11.10
2023-04-19T02:01:37.881Z,11.70
2023-04-19T02:04:06.184Z,12.20
2023-04-19T02:06:34.453Z,12.77
2023-04-19T02:09:02.635Z,12.50
2023-04-19T02:11:31.018Z,13.20
2023-04-19T02:13:59.449Z,12.30
2023-04-19T02:16:29.318Z,12.53
2023-04-19T02:18:57.759Z,13.47
2023-04-19T02:21:26.136Z,12.17
2023-04-19T02:23:54.793Z,13.77
2023-04-19T02:26:24.612Z,12.90
2023-04-19T02:28:53.338Z,14.03
2023-04-19T02:31:21.734Z,13.53
2023-04-19T02:33:52.218Z,13.13
2023-04-19T02:36:21.456Z,14.73
2023-04-19T02:38:50.406Z,15.17
2023-04-19T02:41:19.396Z,15.53
2023-04-19T02:43:47.579Z,15.23
2023-04-19T02:46:15.878Z,14.40
2023-04-19T02:48:44.134Z,14.80
2023-04-19T02:51:18.519Z,15.67
2023-04-19T02:53:47.153Z,16.17
2023-04-19T02:56:16.637Z,16.17
2023-04-19T02:58:45.179Z,14.60
2023-04-19T03:01:15.242Z,15.90
2023-04-19T03:03:43.532Z,16.53
2023-04-19T03:06:11.907Z,16.47
2023-04-19T03:08:41.618Z,16.00
2023-04-19T03:11:09.969Z,16.27
2023-04-19T03:13:38.087Z,16.00
2023-04-19T03:16:07.205Z,16.23
2023-04-19T03:18:36.462Z,16.70
2023-04-19T03:21:05.385Z,15.87
2023-04-19T03:23:33.498Z,15.70
2023-04-19T03:26:04.073Z,15.43
2023-04-19T03:28:32.336Z,14.93
2023-04-19T03:31:01.006Z,14.50
2023-04-19T03:33:31.707Z,15.73
2023-04-19T03:36:00.200Z,16.47
2023-04-19T03:38:28.800Z,16.20
2023-04-19T03:40:58.034Z,15.87
2023-04-19T03:43:27.776Z,16.33
2023-04-19T03:45:56.084Z,14.80
2023-04-19T03:48:24.377Z,16.67
2023-04-19T03:50:53.144Z,15.90
2023-04-19T03:53:21.325Z,16.40
2023-04-19T03:55:49.900Z,14.53
2023-04-19T03:58:18.839Z,17.33
2023-04-19T04:00:48.645Z,16.37
2023-04-19T04:03:17.025Z,16.37
2023-04-19T04:05:45.679Z,16.07
2023-04-19T04:08:14.188Z,17.30
2023-04-19T04:10:42.583Z,16.57
2023-04-19T04:13:14.239Z,16.10
2023-04-19T04:15:45.195Z,16.60
2023-04-19T04:18:16.361Z,16.83
2023-04-19T04:20:45.755Z,16.47
2023-04-19T04:23:39.612Z,17.20
2023-04-19T04:26:11.434Z,16.23
2023-04-19T04:28:39.563Z,16.50
2023-04-19T04:31:08.252Z,17.80
2023-04-19T04:33:43.940Z,17.33
2023-04-19T04:36:12.305Z,16.77
2023-04-19T04:38:41.320Z,17.23
2023-04-19T04:41:09.551Z,17.83
2023-04-19T04:43:38.435Z,16.57
2023-04-19T04:46:08.004Z,18.33
2023-04-19T04:48:37.902Z,17.27
2023-04-19T04:51:08.385Z,16.33
2023-04-19T04:53:36.823Z,16.13
2023-04-19T04:56:11.317Z,18.00
2023-04-19T04:58:43.101Z,17.10
2023-04-19T05:01:13.484Z,15.90
2023-04-19T05:06:49.645Z,17.00
2023-04-19T05:09:19.568Z,17.60
2023-04-19T05:11:47.664Z,16.07
2023-04-19T05:14:15.727Z,16.63
2023-04-19T05:16:46.593Z,17.53
2023-04-19T05:19:16.189Z,15.70
2023-04-19T05:21:44.267Z,16.97
2023-04-19T05:24:12.552Z,17.43
2023-04-19T05:26:42.723Z,16.97
2023-04-19T05:29:10.788Z,15.93
2023-04-19T05:31:38.961Z,16.00
2023-04-19T05:37:07.592Z,15.63
2023-04-19T05:39:52.525Z,15.43
2023-04-19T05:47:50.800Z,17.40
2023-04-19T05:50:20.587Z,15.67
2023-04-19T05:52:50.159Z,16.63
2023-04-19T05:55:18.901Z,14.93
2023-04-19T05:57:47.011Z,14.90
2023-04-19T06:00:16.509Z,15.13
2023-04-19T06:02:45.032Z,14.97
2023-04-19T06:05:13.582Z,14.13
2023-04-19T06:07:47.214Z,14.80
2023-04-19T06:10:24.884Z,15.17
2023-04-19T06:12:54.103Z,14.53
2023-04-19T06:15:22.761Z,16.13
2023-04-19T06:17:52.058Z,14.37
2023-04-19T06:20:20.261Z,15.50
2023-04-19T06:22:49.825Z,15.40
2023-04-19T06:25:18.159Z,15.60
2023-04-19T06:27:49.132Z,14.83
2023-04-19T06:30:19.750Z,15.63
2023-04-19T06:32:47.964Z,17.60
2023-04-19T06:35:17.000Z,15.73
2023-04-19T06:37:45.916Z,14.93
2023-04-19T06:40:14.365Z,15.07
2023-04-19T06:42:44.563Z,14.83
2023-04-19T06:45:21.425Z,15.10
2023-04-19T06:47:49.597Z,14.30
2023-04-19T06:50:17.729Z,14.07
2023-04-19T06:52:46.126Z,13.77
2023-04-19T06:55:14.484Z,15.30
2023-04-19T06:57:43.601Z,14.73
2023-04-19T07:00:15.276Z,13.57
2023-04-19T07:02:43.708Z,14.30
2023-04-19T07:05:12.957Z,15.10
2023-04-19T07:07:41.410Z,14.20
2023-04-19T07:10:12.996Z,14.13
2023-04-19T07:12:41.575Z,14.37
2023-04-19T07:15:11.354Z,14.20
2023-04-19T07:17:41.414Z,14.80
2023-04-19T07:20:10.380Z,15.27
2023-04-19T07:22:38.501Z,13.63
2023-04-19T07:25:07.088Z,14.23
2023-04-19T07:27:35.195Z,13.43
2023-04-19T07:30:04.279Z,13.97
2023-04-19T07:32:33.581Z,12.90
2023-04-19T07:35:03.633Z,13.50
2023-04-19T07:37:31.861Z,14.37
2023-04-19T07:40:01.417Z,13.57
2023-04-19T07:42:34.126Z,12.87
2023-04-19T07:45:03.931Z,13.43
2023-04-19T07:47:33.727Z,12.83
2023-04-19T07:50:04.712Z,13.83
2023-04-19T07:52:33.126Z,12.73
2023-04-19T07:55:01.797Z,12.90
2023-04-19T07:57:30.390Z,12.97
2023-04-19T07:59:59.347Z,13.67
2023-04-19T08:02:28.397Z,13.13
2023-04-19T08:04:57.986Z,13.47
2023-04-19T08:07:29.389Z,12.87
2023-04-19T08:09:58.458Z,13.43
2023-04-19T08:12:36.423Z,13.80
2023-04-19T08:15:29.164Z,13.37
2023-04-19T08:17:57.216Z,12.73
2023-04-19T08:20:26.125Z,13.23
2023-04-19T08:22:56.376Z,12.40
2023-04-19T08:25:28.591Z,13.30
2023-04-19T08:27:57.650Z,13.90
2023-04-19T08:30:26.123Z,13.00
2023-04-19T08:32:56.970Z,12.73
2023-04-19T08:35:26.214Z,13.13
2023-04-19T08:37:55.564Z,13.03
2023-04-19T08:40:24.083Z,13.73
2023-04-19T08:42:52.295Z,12.53
2023-04-19T08:48:00.655Z,13.60
2023-04-19T08:50:38.745Z,13.10
2023-04-19T08:53:24.866Z,11.93
2023-04-19T08:58:45.786Z,13.33
2023-04-19T09:01:22.794Z,13.10
2023-04-19T09:04:04.696Z,12.40
2023-04-19T09:06:44.979Z,12.03
2023-04-19T09:09:34.743Z,12.57
2023-04-19T09:12:32.496Z,13.17
2023-04-19T09:15:02.521Z,14.10
2023-04-19T09:17:31.549Z,14.40
2023-04-19T09:20:00.459Z,13.83
2023-04-19T09:22:29.910Z,14.03
2023-04-19T09:27:35.423Z,12.73
2023-04-19T09:30:09.291Z,13.17
2023-04-19T09:32:49.277Z,12.73
2023-04-19T09:35:17.814Z,13.10
2023-04-19T09:38:05.726Z,12.47
2023-04-19T09:40:36.563Z,11.60
2023-04-19T09:45:43.851Z,13.03
2023-04-19T09:48:12.965Z,12.47
2023-04-19T09:50:58.478Z,12.57
2023-04-19T09:53:29.993Z,12.60
2023-04-19T09:56:02.376Z,11.73
2023-04-19T10:01:13.335Z,12.37
2023-04-19T10:03:44.246Z,12.73
2023-04-19T10:06:20.639Z,12.50
2023-04-19T10:09:03.965Z,12.80
2023-04-19T10:11:40.062Z,13.17
2023-04-19T10:14:10.008Z,13.00
2023-04-19T10:16:38.794Z,12.50
2023-04-19T10:19:10.258Z,13.30
2023-04-19T10:21:39.340Z,12.83
2023-04-19T10:24:08.265Z,13.73
2023-04-19T10:27:12.249Z,11.83
2023-04-19T10:29:59.714Z,12.70
2023-04-19T10:32:37.929Z,12.80
2023-04-19T10:35:09.482Z,14.03
2023-04-19T10:37:41.808Z,11.80
2023-04-19T10:40:12.669Z,11.83
2023-04-19T10:43:18.729Z,12.73
2023-04-19T10:45:47.148Z,11.43
2023-04-19T10:48:35.670Z,11.93
2023-04-19T10:51:05.186Z,11.07
2023-04-19T10:53:47.352Z,11.47
2023-04-19T10:56:15.782Z,10.70
2023-04-19T10:59:22.400Z,9.80
2023-04-19T11:01:56.039Z,11.10
2023-04-19T11:04:46.520Z,10.47
2023-04-19T11:07:14.525Z,9.50
2023-04-19T11:09:47.188Z,9.20
2023-04-19T11:12:16.303Z,8.60
2023-04-19T11:14:46.808Z,8.73
2023-04-19T11:17:19.794Z,9.20
2023-04-19T11:19:54.994Z,9.77
2023-04-19T11:22:27.702Z,10.57
2023-04-19T11:24:55.480Z,10.97
2023-04-19T11:27:23.680Z,10.77
2023-04-19T11:29:52.866Z,11.00
2023-04-19T11:32:23.242Z,10.67
2023-04-19T11:34:51.895Z,12.27
2023-04-19T11:37:19.997Z,13.83
2023-04-19T11:39:48.278Z,12.73
2023-04-19T11:42:20.286Z,13.50
2023-04-19T11:44:53.412Z,12.87
2023-04-19T11:47:21.537Z,12.70
2023-04-19T11:49:49.442Z,13.37
2023-04-19T11:52:22.972Z,13.13
2023-04-19T11:54:51.763Z,14.47
2023-04-19T11:57:29.368Z,14.47
2023-04-19T12:00:08.217Z,15.20
2023-04-19T12:02:39.722Z,15.27
2023-04-19T12:05:12.494Z,14.00
2023-04-19T12:07:59.264Z,13.93
2023-04-19T12:10:27.420Z,14.47
2023-04-19T12:12:55.368Z,14.70
2023-04-19T12:15:26.368Z,15.53
2023-04-19T12:18:00.520Z,17.80
2023-04-19T12:20:32.702Z,16.10
2023-04-19T12:23:01.228Z,17.77
2023-04-19T12:25:30.980Z,14.77
2023-04-19T12:27:59.211Z,13.57
2023-04-19T12:30:28.607Z,9.97
2023-04-19T12:32:56.717Z,8.60
2023-04-19T12:35:26.708Z,8.90
2023-04-19T12:37:58.314Z,8.17
2023-04-19T12:40:27.240Z,8.80
2023-04-19T12:42:55.852Z,7.97
2023-04-19T12:45:24.861Z,7.77
2023-04-19T12:47:54.208Z,7.10
2023-04-19T12:50:22.224Z,7.93
2023-04-19T12:52:51.747Z,8.63
2023-04-19T12:55:19.639Z,7.27
2023-04-19T12:57:47.696Z,6.97
2023-04-19T13:00:16.052Z,7.40
2023-04-19T13:02:44.386Z,7.97
2023-04-19T13:05:13.835Z,7.07
2023-04-19T13:07:42.114Z,8.27
2023-04-19T13:10:10.695Z,7.57
2023-04-19T13:12:38.532Z,7.73
2023-04-19T13:15:07.365Z,7.53
2023-04-19T13:17:37.116Z,7.90
2023-04-19T13:20:06.352Z,7.57
2023-04-19T13:22:35.500Z,7.50
2023-04-19T13:25:03.867Z,7.60
2023-04-19T13:27:31.690Z,6.97
2023-04-19T13:29:59.535Z,5.77
2023-04-19T13:32:27.382Z,4.97
2023-04-19T13:34:55.290Z,4.57
2023-04-19T13:37:23.177Z,4.67
2023-04-19T13:39:52.569Z,5.63
2023-04-19T13:42:24.340Z,4.17
2023-04-19T13:44:52.192Z,4.60
2023-04-19T13:47:19.954Z,4.87
2023-04-19T13:49:52.080Z,4.07
2023-04-19T13:52:19.978Z,4.13
2023-04-19T13:54:47.794Z,4.20
2023-04-19T13:57:18.816Z,4.77
2023-04-19T13:59:46.892Z,5.43
2023-04-19T14:02:14.799Z,4.93
2023-04-19T14:04:43.268Z,3.73
2023-04-19T14:07:11.129Z,3.70
2023-04-19T14:09:42.442Z,2.90
2023-04-19T14:12:10.916Z,3.50
2023-04-19T14:14:40.291Z,3.20
2023-04-19T14:17:08.491Z,3.47
2023-04-19T14:19:36.800Z,3.60
2023-04-19T14:22:04.891Z,4.27
2023-04-19T14:24:32.931Z,4.23
2023-04-19T14:27:10.411Z,4.27
2023-04-19T14:29:40.655Z,5.37
2023-04-19T14:32:24.532Z,4.90
2023-04-19T14:34:54.470Z,5.27
2023-04-19T14:37:23.095Z,5.80
2023-04-19T14:39:51.167Z,4.90
2023-04-19T14:42:21.689Z,5.67
2023-04-19T14:44:53.185Z,4.93
2023-04-19T14:47:21.939Z,4.67
2023-04-19T14:49:52.424Z,4.60
2023-04-19T14:52:21.185Z,4.67
2023-04-19T14:54:49.261Z,4.93
2023-04-19T14:57:17.204Z,4.10
2023-04-19T14:59:45.155Z,4.73
2023-04-19T15:02:14.467Z,4.23
2023-04-19T15:04:43.043Z,3.83
2023-04-19T15:07:11.627Z,4.57
2023-04-19T15:09:41.112Z,4.23
2023-04-19T15:12:09.246Z,4.70
2023-04-19T15:14:37.086Z,4.17
2023-04-19T15:17:05.101Z,4.90
2023-04-19T15:19:34.356Z,5.17
2023-04-19T15:22:03.798Z,5.67
2023-04-19T15:24:31.746Z,5.80
2023-04-19T15:26:59.974Z,4.90
2023-04-19T15:29:27.817Z,5.53
2023-04-19T15:31:55.710Z,5.33
2023-04-19T15:34:25.320Z,5.83
2023-04-19T15:36:54.627Z,5.60
2023-04-19T15:39:22.396Z,5.10
2023-04-19T15:41:50.574Z,5.73
2023-04-19T15:44:18.472Z,5.97
2023-04-19T15:46:46.339Z,5.87
2023-04-19T15:49:14.353Z,5.67
2023-04-19T15:51:42.383Z,5.90
2023-04-19T15:54:12.061Z,6.20
2023-04-19T15:56:39.884Z,5.30
2023-04-19T15:59:07.981Z,5.90
2023-04-19T16:01:36.395Z,4.77
2023-04-19T16:04:04.861Z,4.63
2023-04-19T16:06:33.007Z,4.57
2023-04-19T16:09:01.065Z,4.87
2023-04-19T16:11:31.336Z,4.90
2023-04-19T16:13:59.598Z,4.90
2023-04-19T16:16:32.903Z,4.90
2023-04-19T16:19:00.931Z,4.83
2023-04-19T16:21:28.774Z,5.20
2023-04-19T16:23:56.859Z,4.57
2023-04-19T16:26:26.786Z,4.97
2023-04-19T16:28:56.762Z,4.53
2023-04-19T16:31:24.703Z,4.20
2023-04-19T16:33:52.586Z,4.27
2023-04-19T16:36:20.405Z,4.00
2023-04-19T16:38:48.217Z,4.20
2023-04-19T16:41:15.983Z,3.87
2023-04-19T16:43:44.046Z,4.60
2023-04-19T16:46:13.691Z,4.07
2023-04-19T16:48:42.009Z,4.63
2023-04-19T16:51:10.444Z,3.93
2023-04-19T16:53:38.231Z,3.60
2023-04-19T16:56:06.666Z,3.60
2023-04-19T16:58:34.470Z,3.20
2023-04-19T17:01:02.993Z,4.40
2023-04-19T17:03:32.576Z,4.07
2023-04-19T17:06:01.784Z,3.90
2023-04-19T17:08:29.755Z,4.13
2023-04-19T17:10:58.061Z,3.50
2023-04-19T17:13:26.371Z,3.90
2023-04-19T17:15:54.491Z,3.90
2023-04-19T17:18:22.947Z,4.13
2023-04-19T17:20:52.114Z,4.00
2023-04-19T17:23:21.786Z,4.30
2023-04-19T17:25:50.208Z,4.40
2023-04-19T17:28:18.018Z,4.23
2023-04-19T17:30:46.699Z,4.00
2023-04-19T17:33:15.229Z,4.20
2023-04-19T17:35:44.275Z,4.63
2023-04-19T17:38:14.268Z,4.20
2023-04-19T17:40:42.688Z,4.63
2023-04-19T17:43:11.502Z,4.70
2023-04-19T17:45:40.357Z,5.33
2023-04-19T17:48:08.779Z,5.00
2023-04-19T17:50:36.986Z,4.90
2023-04-19T17:53:04.813Z,5.20
2023-04-19T17:55:34.671Z,4.53
2023-04-19T17:58:03.087Z,5.37
2023-04-19T18:00:30.890Z,5.03
2023-04-19T18:02:58.819Z,5.07
2023-04-19T18:05:27.551Z,5.00
2023-04-19T18:07:55.509Z,5.30
2023-04-19T18:10:23.551Z,4.33
2023-04-19T18:12:56.355Z,4.33
2023-04-19T18:15:24.746Z,4.67
2023-04-19T18:17:53.346Z,5.10
2023-04-19T18:20:22.391Z,4.80
2023-04-19T18:22:50.938Z,4.23
2023-04-19T18:25:19.182Z,5.43
2023-04-19T18:27:47.200Z,4.60
2023-04-19T18:30:16.603Z,5.37
2023-04-19T18:32:45.216Z,4.50
2023-04-19T18:35:13.088Z,3.90
2023-04-19T18:37:41.642Z,5.07
2023-04-19T18:40:11.548Z,4.50
2023-04-19T18:42:40.156Z,4.47
2023-04-19T18:45:10.136Z,4.40
2023-04-19T18:47:39.866Z,3.60
2023-04-19T18:50:09.344Z,4.30
2023-04-19T18:52:38.124Z,4.50
2023-04-19T18:55:07.204Z,4.73
2023-04-19T18:57:35.569Z,4.37
2023-04-19T19:00:06.058Z,4.17
2023-04-19T19:02:37.046Z,4.03
2023-04-19T19:05:08.675Z,4.40
2023-04-19T19:07:37.799Z,4.73
2023-04-19T19:12:39.529Z,4.83
2023-04-19T19:15:09.035Z,5.73
2023-04-19T19:17:37.840Z,4.80
2023-04-19T19:20:09.176Z,5.27
2023-04-19T19:22:37.706Z,5.53
2023-04-19T19:25:07.007Z,5.43
2023-04-19T19:27:35.409Z,4.87
2023-04-19T19:30:03.710Z,4.67
2023-04-19T19:32:32.293Z,4.63
2023-04-19T19:35:05.426Z,4.57
2023-04-19T19:37:39.362Z,4.97
2023-04-19T19:40:11.217Z,3.90
2023-04-19T19:42:40.594Z,5.13
2023-04-19T19:45:10.380Z,5.73
2023-04-19T19:47:45.690Z,4.90
2023-04-19T19:52:52.967Z,4.93
2023-04-19T19:55:21.863Z,5.20
2023-04-19T20:01:51.389Z,4.20
2023-04-19T20:07:53.634Z,4.40
2023-04-19T20:10:27.710Z,4.87
2023-04-19T20:13:46.658Z,5.10
2023-04-19T20:43:35.441Z,4.37
2023-04-19T20:51:27.965Z,4.10
2023-04-19T20:54:03.068Z,4.73
2023-04-19T20:56:38.949Z,4.67
2023-04-19T20:59:32.501Z,4.23
2023-04-19T21:02:01.566Z,4.47
2023-04-19T21:04:32.537Z,4.00
2023-04-19T21:07:01.642Z,3.87
2023-04-19T21:09:30.902Z,4.30
2023-04-19T21:11:59.540Z,3.73
2023-04-19T21:14:32.773Z,4.70
2023-04-19T21:17:00.753Z,5.60
2023-04-19T21:19:28.660Z,5.07
2023-04-19T21:21:56.777Z,5.80
2023-04-19T21:24:24.681Z,5.13
2023-04-19T21:26:52.651Z,5.17
2023-04-19T21:29:20.832Z,4.90
2023-04-19T21:31:50.340Z,4.37
2023-04-19T21:34:18.357Z,5.27
2023-04-19T21:36:47.645Z,5.17
2023-04-19T21:39:16.386Z,5.40
2023-04-19T21:41:45.443Z,5.40
2023-04-19T21:44:13.445Z,5.20
2023-04-19T21:46:41.930Z,4.97
2023-04-19T21:49:11.345Z,5.37
2023-04-19T21:51:39.381Z,4.90
2023-04-19T21:54:08.554Z,5.73
2023-04-19T21:56:36.517Z,5.33
2023-04-19T21:59:04.447Z,5.57
2023-04-19T22:01:33.030Z,5.53
2023-04-19T22:04:01.864Z,4.93
2023-04-19T22:06:32.904Z,5.60
2023-04-19T22:09:02.741Z,5.57
2023-04-19T22:11:31.334Z,5.97
2023-04-19T22:13:59.794Z,5.73
2023-04-19T22:16:30.126Z,5.83
2023-04-19T22:18:58.741Z,5.47
2023-04-19T22:21:27.559Z,5.13
2023-04-19T22:23:56.940Z,5.93
2023-04-19T22:26:26.849Z,5.70
2023-04-19T22:28:55.800Z,5.53
2023-04-19T22:31:23.847Z,6.27
2023-04-19T22:33:52.246Z,6.33
2023-04-19T22:36:20.249Z,5.63
2023-04-19T22:38:48.865Z,6.53
2023-04-19T22:41:18.284Z,6.30
2023-04-19T22:43:46.324Z,5.80
2023-04-19T22:46:15.345Z,5.60
2023-04-19T22:48:43.998Z,5.77
2023-04-19T22:51:12.044Z,5.67
2023-04-19T22:53:40.614Z,5.90
2023-04-19T22:56:09.418Z,5.87
2023-04-19T22:58:39.596Z,5.40
2023-04-19T23:01:07.532Z,5.77
2023-04-19T23:03:35.809Z,5.90
2023-04-19T23:06:04.182Z,6.17
2023-04-19T23:08:33.354Z,6.13
2023-04-19T23:11:01.341Z,6.23
2023-04-19T23:13:29.970Z,6.00
2023-04-19T23:15:59.904Z,5.77
2023-04-19T23:18:29.966Z,6.43
2023-04-19T23:20:59.390Z,6.20
2023-04-19T23:26:11.094Z,5.97
2023-04-19T23:28:39.746Z,7.37
2023-04-19T23:31:09.904Z,5.90
2023-04-19T23:33:37.902Z,5.60
2023-04-19T23:36:06.394Z,6.30
2023-04-19T23:38:34.323Z,7.43
2023-04-19T23:41:02.248Z,6.93
2023-04-19T23:43:30.599Z,7.57
2023-04-19T23:45:59.408Z,6.80
2023-04-19T23:48:28.759Z,7.27
2023-04-19T23:50:56.849Z,6.87
2023-04-19T23:53:25.403Z,6.70
2023-04-19T23:55:53.954Z,7.30
2023-04-19T23:58:22.376Z,7.47
